Weather at Saint-Nazaire-Montoir Airport

Public forecast

Using degrees Celsius for public forecast. Weather courtesy of forecast.io.

Current aviation weather report (METAR) for Saint-Nazaire-Montoir Airport

Retrieved 2021/01/18 05:30 UTC (0 seconds ago):

LFRZ 180530Z AUTO 16003KT 9999 BKN043 02/02 Q1028 TEMPO 0500 FG VV///

Aviation forecast (TAF) for Saint-Nazaire-Montoir Airport

Retrieved 2021-01-18 00:00 UTC (5 hours ago):

TAF LFRZ 172300Z 1800/1824 VRB02KT 3000 BR NSC TEMPO 1800/1809 0500 FG VV/// BECMG 1809/1811 9999 NSW BKN030 BECMG 1815/1817 19010KT